createdAt,value
2023-05-02T00:05:52.255Z,100537.34
2023-05-02T00:15:55.223Z,100526.28
2023-05-02T00:26:00.469Z,100517.63
2023-05-02T00:36:02.375Z,100506.09
2023-05-02T00:46:04.553Z,100511.34
2023-05-02T00:56:17.874Z,100505.53
2023-05-02T01:06:34.821Z,100482.41
2023-05-02T01:16:42.405Z,100484.03
2023-05-02T01:26:59.535Z,100491.91
2023-05-02T01:37:02.481Z,100460.91
2023-05-02T01:47:06.093Z,100458.00
2023-05-02T01:57:32.942Z,100450.88
2023-05-02T02:07:36.360Z,100450.88
2023-05-02T02:17:44.046Z,100433.28
2023-05-02T02:27:47.520Z,100430.66
2023-05-02T02:37:59.317Z,100433.56
2023-05-02T02:48:36.230Z,100433.56
2023-05-02T02:58:54.058Z,100435.16
2023-05-02T03:08:56.732Z,100419.66
2023-05-02T03:18:58.740Z,100421.19
2023-05-02T03:29:00.677Z,100416.19
2023-05-02T03:39:03.664Z,100418.84
2023-05-02T03:49:05.636Z,100427.00
2023-05-02T03:59:12.432Z,100421.75
2023-05-02T04:09:15.513Z,100424.91
2023-05-02T04:19:30.602Z,100427.50
2023-05-02T04:29:32.584Z,100429.00
2023-05-02T04:39:52.722Z,100430.75
2023-05-02T04:50:02.161Z,100433.84
2023-05-02T05:00:06.155Z,100427.06
2023-05-02T05:10:08.848Z,100420.16
2023-05-02T05:20:25.034Z,100414.78
2023-05-02T05:30:27.233Z,100411.53
2023-05-02T05:40:39.129Z,100416.97
2023-05-02T05:50:43.137Z,100407.72
2023-05-02T06:01:09.896Z,100413.41
2023-05-02T06:11:11.987Z,100403.50
2023-05-02T06:21:14.981Z,100395.56
2023-05-02T06:31:17.298Z,100414.91
2023-05-02T06:41:21.472Z,100407.81
2023-05-02T06:51:32.456Z,100419.09
2023-05-02T07:01:34.534Z,100420.53
2023-05-02T07:11:43.631Z,100422.75
2023-05-02T07:22:00.836Z,100409.84
2023-05-02T07:32:03.410Z,100418.88
2023-05-02T07:42:06.796Z,100444.06
2023-05-02T07:52:15.997Z,100440.91
2023-05-02T08:02:20.503Z,100462.59
2023-05-02T08:12:22.792Z,100453.44
2023-05-02T08:22:24.922Z,100453.44
2023-05-02T08:32:27.212Z,100468.84
2023-05-02T08:42:47.437Z,100480.50
2023-05-02T08:52:54.533Z,100493.91
2023-05-02T09:03:30.911Z,100486.22
2023-05-02T09:13:43.200Z,100498.88
2023-05-02T09:23:48.571Z,100499.34
2023-05-02T09:33:50.574Z,100522.28
2023-05-02T09:44:19.928Z,100519.78
2023-05-02T09:54:38.262Z,100530.44
2023-05-02T10:04:41.161Z,100548.00
2023-05-02T10:14:58.615Z,100560.63
2023-05-02T10:25:06.946Z,100575.41
2023-05-02T10:35:09.438Z,100592.41
2023-05-02T10:45:34.094Z,100615.78
2023-05-02T10:55:37.367Z,100628.97
2023-05-02T11:06:08.861Z,100653.13
2023-05-02T11:16:10.918Z,100667.00
2023-05-02T11:26:23.361Z,100695.91
2023-05-02T11:36:40.891Z,100700.03
2023-05-02T11:46:44.983Z,100701.88
2023-05-02T11:56:49.074Z,100711.03
2023-05-02T12:07:10.128Z,100717.66
2023-05-02T12:17:13.069Z,100726.13
2023-05-02T12:27:21.332Z,100728.78
2023-05-02T12:37:28.641Z,100731.47
2023-05-02T12:47:46.669Z,100742.66
2023-05-02T12:58:05.777Z,100716.22
2023-05-02T13:08:07.623Z,100732.41
2023-05-02T13:18:09.738Z,100757.31
2023-05-02T13:28:21.643Z,100753.69
2023-05-02T13:38:24.618Z,100749.94
2023-05-02T13:48:51.886Z,100763.44
2023-05-02T13:59:05.547Z,100767.66
2023-05-02T14:09:13.500Z,100777.22
2023-05-02T14:19:15.664Z,100764.22
2023-05-02T14:29:20.036Z,100772.81
2023-05-02T14:39:22.350Z,100774.22
2023-05-02T14:49:33.378Z,100766.38
2023-05-02T14:59:40.521Z,100766.00
2023-05-02T15:09:43.586Z,100772.13
2023-05-02T15:19:47.764Z,100780.41
2023-05-02T15:30:12.375Z,100760.84
2023-05-02T15:40:19.531Z,100758.34
2023-05-02T15:50:48.675Z,100754.75
2023-05-02T16:00:52.693Z,100748.78
2023-05-02T16:11:02.170Z,100769.63
2023-05-02T16:21:05.689Z,100765.06
2023-05-02T16:31:11.336Z,100772.69
2023-05-02T16:41:13.703Z,100777.34
2023-05-02T16:51:15.712Z,100772.72
2023-05-02T17:01:42.984Z,100780.47
2023-05-02T17:11:45.042Z,100792.59
2023-05-02T17:21:47.171Z,100786.25
2023-05-02T17:31:52.523Z,100792.25
2023-05-02T17:41:54.706Z,100803.75
2023-05-02T17:51:57.727Z,100804.81
2023-05-02T18:02:12.310Z,100816.75
2023-05-02T18:12:14.387Z,100826.78
2023-05-02T18:22:38.637Z,100858.44
2023-05-02T18:32:49.867Z,100874.19
2023-05-02T18:43:37.334Z,100853.53
2023-05-02T18:54:04.812Z,100883.22
2023-05-02T19:04:32.435Z,100912.28
2023-05-02T19:14:36.980Z,100932.31
2023-05-02T19:24:45.829Z,100954.97
2023-05-02T19:34:52.050Z,100968.44
2023-05-02T19:44:55.241Z,100974.09
2023-05-02T19:54:57.401Z,100995.97
2023-05-02T20:04:59.784Z,101010.41
2023-05-02T20:15:08.055Z,101019.00
2023-05-02T20:25:20.635Z,101046.69
2023-05-02T20:35:31.909Z,101062.75
2023-05-02T20:45:35.032Z,101066.19
2023-05-02T20:55:37.013Z,101067.66
2023-05-02T21:06:04.229Z,101077.06
2023-05-02T21:16:24.726Z,101094.53
2023-05-02T21:26:39.011Z,101120.78
2023-05-02T21:36:43.504Z,101135.88
2023-05-02T21:46:48.496Z,101146.69
2023-05-02T21:56:56.340Z,101166.19
2023-05-02T22:07:02.415Z,101160.88
2023-05-02T22:17:10.306Z,101172.19
2023-05-02T22:27:20.115Z,101176.91
2023-05-02T22:37:26.281Z,101180.81
2023-05-02T22:47:30.416Z,101180.78
2023-05-02T22:57:34.438Z,101185.53
2023-05-02T23:07:36.360Z,101191.28
2023-05-02T23:17:39.958Z,101193.91
2023-05-02T23:27:42.058Z,101194.31
2023-05-02T23:37:47.135Z,101212.44
2023-05-02T23:47:49.066Z,101229.50
2023-05-02T23:57:51.965Z,101235.78
